Pine Grove Furnace, Pennsylvania
Current Conditions -  °F | °C
As of 11:53 PM on Friday 28 Nov 2014 (Local Time) from KTHV Reporting Station
Broken Clouds Broken Clouds  
Wind Chill: 23°   Ceiling: 9500
Heat Index: 23°   Visibility: 10mi
Dew Point: 17°   Wind: 0mph
Humidity: 78%   Direction: NA
Pressure: 30.27"   Gusts: NA
Location:  40.0362°N, 77.1908°W
Report Text: KTHV 290453Z AUTO 00000KT 10SM BKN095 BKN110 M05/M08 A3027 RMK AO2 SLP259 T10501083 400171067
Loading
Personal Weather Stations






























Interactive Weather Map New forecast layout! Learn more

10-Day Weather Forecast

Advertisements
Track Severe Weather on mobile